Time;durP1;ratioP1;P1;durP2;ratioP2;P2;SDS_P1;SDS_P2;PMS_P1;PMS_P2;Temp;Humidity;BMP_temperature;BMP_pressure;BME280_temperature;BME280_humidity;BME280_pressure;Samples;Min_cycle;Max_cycle;Signal;HPM_P1;HPM_P2
2022/05/11 00:00:52;;;;;;;11.77;3.45;;;;;;;11.43;47.85;101207.06;4986663;28;20358;-80
2022/05/11 00:04:26;;;;;;;5.88;3.47;;;;;;;11.36;47.91;101221.28;4945853;28;20060;-80
2022/05/11 00:07:49;;;;;;;10.70;3.05;;;;;;;11.40;47.98;101211.56;4948815;28;20157;-78
2022/05/11 00:11:08;;;;;;;6.78;2.67;;;;;;;11.38;47.73;101190.69;4983372;28;20129;-81
2022/05/11 00:14:22;;;;;;;9.82;3.83;;;;;;;11.27;48.16;101207.72;4935608;28;20104;-84
2022/05/11 00:17:28;;;;;;;5.38;3.22;;;;;;;11.31;48.08;101212.78;4965879;28;20038;-81
2022/05/11 00:20:42;;;;;;;7.90;3.00;;;;;;;11.27;48.35;101208.56;4985459;28;20118;-79
2022/05/11 00:23:34;;;;;;;12.73;3.10;;;;;;;11.23;47.96;101209.59;4967626;28;20204;-84
2022/05/11 00:26:07;;;;;;;8.45;2.85;;;;;;;11.11;48.01;101204.81;4969375;28;20049;-80
2022/05/11 00:29:35;;;;;;;5.78;3.00;;;;;;;11.09;48.15;101201.41;4968424;28;20061;-81
2022/05/11 00:32:53;;;;;;;7.75;3.28;;;;;;;11.03;48.52;101190.25;4975462;28;20594;-84
2022/05/11 00:35:46;;;;;;;6.03;3.00;;;;;;;11.08;48.39;101186.59;4986574;28;20500;-84
2022/05/11 00:38:35;;;;;;;5.65;2.95;;;;;;;11.01;48.60;101168.50;4974316;28;20049;-80
2022/05/11 00:41:51;;;;;;;11.57;3.67;;;;;;;10.87;48.80;101156.88;4990402;28;20043;-78
2022/05/11 00:44:46;;;;;;;7.45;3.22;;;;;;;10.86;48.91;101160.38;4959623;28;20056;-83
2022/05/11 00:47:54;;;;;;;5.10;3.03;;;;;;;10.88;48.67;101158.56;4930702;28;20082;-79
2022/05/11 00:50:51;;;;;;;7.65;3.22;;;;;;;10.82;48.74;101159.66;4971845;28;20035;-79
2022/05/11 00:53:40;;;;;;;3.28;2.65;;;;;;;10.88;48.39;101162.03;4972473;28;20193;-81
2022/05/11 00:57:42;;;;;;;8.02;2.38;;;;;;;10.89;48.28;101155.91;4993706;28;20124;-79
2022/05/11 01:00:56;;;;;;;7.43;2.70;;;;;;;11.00;47.78;101153.75;4975286;28;20124;-82
2022/05/11 01:04:11;;;;;;;7.13;2.88;;;;;;;11.07;47.51;101140.44;4966464;28;20038;-80
2022/05/11 01:07:27;;;;;;;7.25;2.40;;;;;;;11.13;47.06;101141.06;4967086;28;20205;-79
2022/05/11 01:10:36;;;;;;;3.70;2.20;;;;;;;11.05;47.61;101133.50;4994550;28;20524;-81
2022/05/11 01:13:52;;;;;;;4.57;2.90;;;;;;;11.15;47.21;101136.63;4961096;28;20074;-82
2022/05/11 01:17:01;;;;;;;5.70;2.03;;;;;;;11.12;47.40;101148.97;4938449;28;20049;-83
2022/05/11 01:20:53;;;;;;;7.45;2.33;;;;;;;11.11;47.19;101137.66;4978885;28;20524;-82
2022/05/11 01:24:57;;;;;;;8.20;2.22;;;;;;;11.15;47.07;101135.75;4993173;28;20045;-82
2022/05/11 01:28:43;;;;;;;3.45;2.13;;;;;;;11.05;46.81;101133.50;4992861;28;20061;-79
2022/05/11 01:32:02;;;;;;;3.90;2.35;;;;;;;11.09;47.07;101138.63;4970934;28;20066;-80
2022/05/11 01:35:15;;;;;;;4.40;2.28;;;;;;;11.03;46.74;101124.84;4988917;28;20046;-82
2022/05/11 01:38:47;;;;;;;6.05;2.17;;;;;;;10.96;47.00;101128.63;4949283;28;20081;-81
2022/05/11 01:42:04;;;;;;;4.32;2.45;;;;;;;10.93;47.29;101120.88;4981047;28;20034;-82
2022/05/11 01:45:16;;;;;;;6.25;2.47;;;;;;;10.87;47.63;101121.13;4986684;28;20092;-81
2022/05/11 01:48:31;;;;;;;6.30;2.30;;;;;;;10.77;47.70;101125.81;4967129;28;20058;-77
2022/05/11 01:51:23;;;;;;;5.15;2.95;;;;;;;10.82;47.56;101120.44;4983075;28;20607;-79
2022/05/11 01:57:55;;;;;;;4.95;2.70;;;;;;;10.76;47.60;101120.63;4981423;28;20118;-82
2022/05/11 02:01:12;;;;;;;4.28;2.50;;;;;;;10.81;47.72;101121.31;4977649;28;20585;-81
2022/05/11 02:08:09;;;;;;;4.97;2.53;;;;;;;10.82;47.40;101115.22;4962663;28;20046;-80
2022/05/11 02:15:08;;;;;;;5.82;2.38;;;;;;;10.90;47.88;101114.91;4965679;28;20535;-83
2022/05/11 02:18:50;;;;;;;5.43;2.88;;;;;;;10.86;47.69;101108.97;4988332;28;20049;-80
2022/05/11 02:21:46;;;;;;;5.55;2.90;;;;;;;10.78;48.08;101110.97;4985028;28;20721;-81
2022/05/11 02:25:35;;;;;;;4.70;2.05;;;;;;;10.71;48.34;101112.97;4981325;28;20050;-80
2022/05/11 02:28:32;;;;;;;4.50;3.30;;;;;;;10.65;48.39;101110.56;4941673;28;20092;-77
2022/05/11 02:31:50;;;;;;;8.23;2.90;;;;;;;10.68;48.69;101114.81;4966686;28;20038;-77
2022/05/11 02:35:12;;;;;;;7.88;2.85;;;;;;;10.65;48.95;101107.94;4970807;28;20588;-81
2022/05/11 02:38:01;;;;;;;5.87;3.30;;;;;;;10.73;48.67;101097.22;4977917;28;20084;-78
2022/05/11 02:40:51;;;;;;;7.05;3.00;;;;;;;10.86;48.84;101095.88;4991064;28;20277;-81
2022/05/11 02:44:19;;;;;;;;;;;;;;;10.87;48.47;101094.97;4998430;28;20136;-80
2022/05/11 02:47:08;;;;;;;6.53;2.80;;;;;;;10.82;48.70;101089.06;4984559;28;19922;-81
2022/05/11 02:50:23;;;;;;;4.28;2.08;;;;;;;10.85;48.80;101088.94;4972448;28;20046;-81
2022/05/11 02:54:07;;;;;;;9.73;2.58;;;;;;;10.98;48.94;101081.50;4956178;28;20057;-81
2022/05/11 02:56:55;;;;;;;7.22;3.13;;;;;;;11.05;48.39;101073.34;4987689;28;20077;-80
2022/05/11 03:00:26;;;;;;;8.70;3.53;;;;;;;11.02;48.74;101073.47;4994817;28;20069;-79
2022/05/11 03:03:34;;;;;;;3.78;2.83;;;;;;;11.01;48.98;101063.03;4987693;28;20034;-81
2022/05/11 03:06:05;;;;;;;6.28;2.92;;;;;;;10.87;49.12;101058.34;4970984;28;20034;-82
2022/05/11 03:08:38;;;;;;;4.82;2.05;;;;;;;10.98;49.21;101061.41;4945719;28;20154;-82
2022/05/11 03:11:37;;;;;;;6.15;2.53;;;;;;;10.99;49.25;101057.88;4968592;28;20443;-80
2022/05/11 03:15:28;;;;;;;4.07;1.70;;;;;;;11.03;49.06;101063.84;4997345;28;20123;-83
2022/05/11 03:18:32;;;;;;;6.13;2.65;;;;;;;11.07;49.16;101048.91;4967641;28;20061;-80
2022/05/11 03:22:18;;;;;;;5.20;3.03;;;;;;;11.08;48.86;101045.34;4975072;28;20156;-82
2022/05/11 03:25:32;;;;;;;7.80;2.95;;;;;;;11.08;48.80;101043.56;4920277;28;20039;-79
2022/05/11 03:29:05;;;;;;;5.50;2.15;;;;;;;11.14;48.82;101047.72;4911004;28;20050;-82
2022/05/11 03:35:37;;;;;;;6.38;3.08;;;;;;;11.19;48.67;101040.53;4953475;28;20070;-82
2022/05/11 03:38:06;;;;;;;6.93;2.47;;;;;;;11.22;48.70;101048.28;4930994;28;20608;-80
2022/05/11 03:41:32;;;;;;;5.22;3.20;;;;;;;11.24;48.94;101042.06;4946557;28;20046;-82
2022/05/11 03:44:34;;;;;;;5.82;2.67;;;;;;;11.13;48.41;101032.94;4907766;29;20728;-82
2022/05/11 03:48:26;;;;;;;7.97;3.28;;;;;;;11.18;48.85;101031.00;4885888;28;20461;-82
2022/05/11 03:52:12;;;;;;;4.28;2.65;;;;;;;11.19;48.86;101003.91;4939276;28;20054;-76
2022/05/11 03:55:13;;;;;;;4.78;2.63;;;;;;;11.24;48.98;101007.19;4951925;28;20039;-83
2022/05/11 03:58:45;;;;;;;6.68;2.80;;;;;;;11.25;49.00;100993.22;4942396;28;20042;-82
2022/05/11 04:01:40;;;;;;;4.68;2.80;;;;;;;11.30;48.84;100983.41;4976783;28;20109;-80
2022/05/11 04:04:31;;;;;;;8.73;3.33;;;;;;;11.32;48.93;100981.56;4933175;28;20041;-81
2022/05/11 04:06:57;;;;;;;9.80;2.67;;;;;;;11.34;48.53;100984.13;4929578;28;20050;-79
2022/05/11 04:09:50;;;;;;;5.78;2.83;;;;;;;11.38;48.80;100985.72;4952947;28;20797;-80
2022/05/11 04:12:58;;;;;;;6.53;3.40;;;;;;;11.18;49.03;100981.31;4940678;28;20132;-80
2022/05/11 04:17:07;;;;;;;6.05;2.90;;;;;;;11.53;48.41;100984.19;4891293;29;20644;-82
2022/05/11 04:20:18;;;;;;;7.72;2.70;;;;;;;11.58;48.26;100977.03;4952530;28;20050;-83
2022/05/11 04:23:25;;;;;;;;;;;;;;;11.62;48.17;100971.59;4916172;28;20049;-82
2022/05/11 04:27:25;;;;;;;6.75;2.03;;;;;;;11.37;48.37;100978.75;4944731;28;20891;-80
2022/05/11 04:31:13;;;;;;;6.30;3.20;;;;;;;11.67;47.87;100974.00;4941054;28;20575;-79
2022/05/11 04:35:09;;;;;;;5.75;2.60;;;;;;;11.11;49.26;100992.94;4932822;28;20055;-81
2022/05/11 04:38:06;;;;;;;4.93;2.42;;;;;;;11.64;48.50;100990.72;4936481;28;20112;-83
2022/05/11 04:40:34;;;;;;;11.35;3.65;;;;;;;11.41;48.58;100985.56;4969757;28;20030;-79
2022/05/11 04:43:07;;;;;;;10.77;3.83;;;;;;;11.67;48.54;100992.34;4966148;28;20057;-81
2022/05/11 04:46:20;;;;;;;6.95;3.13;;;;;;;11.76;47.96;100981.47;4970483;28;20037;-81
2022/05/11 04:49:36;;;;;;;6.55;3.17;;;;;;;11.78;47.75;100982.28;4982648;28;20104;-81
2022/05/11 04:53:24;;;;;;;5.63;2.85;;;;;;;11.40;48.95;100979.50;4964510;28;20046;-80
2022/05/11 04:57:13;;;;;;;4.30;2.97;;;;;;;11.74;48.28;100983.28;4943431;29;20136;-80
2022/05/11 05:00:44;;;;;;;8.00;2.45;;;;;;;11.95;47.89;100981.53;4931213;28;20109;-82
2022/05/11 05:04:07;;;;;;;7.25;2.78;;;;;;;11.88;48.44;100980.09;4986604;28;20045;-82
2022/05/11 05:06:57;;;;;;;9.73;3.92;;;;;;;11.67;48.23;100976.63;4955324;28;20081;-80
2022/05/11 05:09:47;;;;;;;8.85;3.13;;;;;;;11.84;47.98;100971.53;5009075;28;20436;-81
2022/05/11 05:13:00;;;;;;;7.78;3.58;;;;;;;11.84;48.24;100973.28;4987622;28;20045;-83
2022/05/11 05:16:28;;;;;;;3.28;2.33;;;;;;;11.73;48.43;100973.75;4998113;28;20166;-82
2022/05/11 05:20:14;;;;;;;4.82;2.53;;;;;;;11.68;49.03;100984.41;4988940;28;20080;-82
2022/05/11 05:23:45;;;;;;;9.05;3.13;;;;;;;11.76;48.71;100981.47;4983827;28;20065;-82
2022/05/11 05:26:17;;;;;;;8.63;3.47;;;;;;;11.83;48.32;100982.09;4972822;28;20038;-81
2022/05/11 05:33:08;;;;;;;6.00;3.22;;;;;;;11.91;48.19;100971.25;4988225;28;20048;-80
2022/05/11 05:36:39;;;;;;;4.93;2.90;;;;;;;11.95;48.54;100981.53;4989048;28;20041;-81
2022/05/11 05:40:10;;;;;;;7.78;2.75;;;;;;;11.95;48.08;100980.69;4975311;28;20053;-80
2022/05/11 05:44:20;;;;;;;5.90;3.33;;;;;;;11.73;48.72;100976.38;4980097;28;20160;-79
2022/05/11 05:48:05;;;;;;;6.43;2.95;;;;;;;12.11;48.43;100976.47;4958743;28;20080;-81
2022/05/11 05:51:17;;;;;;;6.03;2.80;;;;;;;12.38;47.82;100990.09;4986592;28;20061;-81
2022/05/11 05:55:29;;;;;;;8.30;2.67;;;;;;;11.98;48.89;100985.81;4949307;28;20038;-82
2022/05/11 06:02:31;;;;;;;6.70;2.90;;;;;;;12.26;48.37;100967.91;4991290;28;20150;-82
2022/05/11 06:05:52;;;;;;;6.80;4.10;;;;;;;12.01;49.18;100980.41;4979849;28;20042;-79
2022/05/11 06:08:27;;;;;;;9.50;2.95;;;;;;;12.33;49.07;100978.13;4955168;28;20088;-83
2022/05/11 06:11:41;;;;;;;9.40;3.13;;;;;;;12.40;48.64;100969.91;4967095;28;20501;-82
2022/05/11 06:15:55;;;;;;;6.40;2.95;;;;;;;12.48;48.19;100977.41;4962374;28;20156;-83
2022/05/11 06:19:52;;;;;;;6.20;3.33;;;;;;;12.82;47.28;100944.38;4942237;28;20052;-81
2022/05/11 06:23:22;;;;;;;13.05;4.85;;;;;;;12.75;47.67;100945.59;4979572;28;20520;-77
2022/05/11 06:27:36;;;;;;;7.85;2.80;;;;;;;12.95;46.65;100940.22;4984324;28;20527;-83
2022/05/11 06:31:23;;;;;;;11.23;4.20;;;;;;;13.14;46.82;100944.56;4961164;28;20053;-78
2022/05/11 06:37:27;;;;;;;6.22;2.83;;;;;;;13.51;46.33;100944.41;4941460;28;20676;-79
2022/05/11 06:40:46;;;;;;;4.47;3.00;;;;;;;13.84;44.79;100954.13;4997154;28;20125;-79
2022/05/11 06:43:15;;;;;;;8.80;3.58;;;;;;;12.78;46.96;100938.44;4962965;28;20080;-78
2022/05/11 06:45:41;;;;;;;6.53;3.30;;;;;;;13.52;45.60;100953.16;4960836;28;20050;-77
2022/05/11 06:48:27;;;;;;;6.32;2.50;;;;;;;13.87;45.93;100953.97;4937426;28;20715;-80
2022/05/11 06:50:55;;;;;;;9.95;2.58;;;;;;;13.93;44.68;100958.91;4947162;28;20483;-82
2022/05/11 06:53:21;;;;;;;7.38;3.58;;;;;;;13.78;44.92;100954.44;4944449;28;20046;-78
2022/05/11 07:01:21;;;;;;;7.03;3.45;;;;;;;13.53;46.24;100949.59;4997796;28;20038;-78
2022/05/11 07:04:16;;;;;;;10.32;3.50;;;;;;;13.75;45.54;100945.91;4964131;28;20069;-78
2022/05/11 07:06:42;;;;;;;9.05;2.90;;;;;;;14.03;44.40;100934.75;4965917;28;20081;-78
2022/05/11 07:09:16;;;;;;;11.90;3.58;;;;;;;14.12;43.99;100927.25;4912962;28;20128;-81
2022/05/11 07:14:28;;;;;;;6.05;3.38;;;;;;;13.99;44.85;100923.56;4987130;28;20039;-80
2022/05/11 07:16:54;;;;;;;5.18;2.60;;;;;;;14.35;44.13;100919.88;4993547;28;20096;-81
2022/05/11 07:19:23;;;;;;;9.25;3.17;;;;;;;14.26;43.69;100913.34;5001198;28;20983;-77
2022/05/11 07:21:51;;;;;;;6.18;3.17;;;;;;;13.69;45.29;100920.78;4984761;28;20042;-79
2022/05/11 07:24:18;;;;;;;8.45;2.95;;;;;;;14.34;44.53;100910.28;4986858;28;20042;-80
2022/05/11 07:26:44;;;;;;;9.80;3.33;;;;;;;14.15;44.32;100911.28;4950442;28;20045;-78
2022/05/11 07:29:17;;;;;;;10.23;3.53;;;;;;;14.09;44.58;100900.25;4968938;28;20117;-78
2022/05/11 07:31:45;;;;;;;;;;;;;;;14.53;43.29;100902.25;4969157;28;20423;-78
2022/05/11 07:34:13;;;;;;;5.60;3.13;;;;;;;14.64;43.03;100902.50;4966637;28;19968;-78
2022/05/11 07:36:39;;;;;;;12.27;3.45;;;;;;;14.71;43.28;100903.00;4955235;28;20041;-79
2022/05/11 07:39:05;;;;;;;14.95;3.50;;;;;;;14.74;43.48;100901.00;4969500;28;20038;-79
2022/05/11 07:41:41;;;;;;;10.88;3.58;;;;;;;14.54;43.44;100901.31;4974635;28;20037;-80
2022/05/11 07:44:13;;;;;;;7.63;3.50;;;;;;;14.76;42.66;100907.03;4953628;28;20061;-78
2022/05/11 07:46:39;;;;;;;5.38;2.65;;;;;;;14.48;43.35;100906.94;5000815;28;20057;-80
2022/05/11 07:49:11;;;;;;;10.85;3.60;;;;;;;14.45;43.69;100920.22;4958962;28;20045;-81
2022/05/11 07:51:43;;;;;;;8.13;2.63;;;;;;;14.86;42.16;100909.16;4991493;28;20025;-79
2022/05/11 07:54:13;;;;;;;9.32;3.78;;;;;;;14.79;42.83;100913.06;4948331;28;20077;-78
2022/05/11 08:02:43;;;;;;;8.98;2.65;;;;;;;15.71;40.51;100908.50;4982915;28;20089;-80
2022/05/11 08:05:13;;;;;;;5.40;2.80;;;;;;;15.07;41.56;100900.00;4958391;28;20062;-78
2022/05/11 08:07:50;;;;;;;5.90;3.22;;;;;;;15.77;40.54;100905.50;4957164;28;20049;-81
2022/05/11 08:10:35;;;;;;;7.18;2.50;;;;;;;15.94;40.11;100907.06;4995123;28;20035;-81
2022/05/11 08:13:05;;;;;;;12.05;3.45;;;;;;;14.66;42.30;100900.63;4936947;28;20051;-80
2022/05/11 08:15:32;;;;;;;5.97;3.50;;;;;;;14.88;42.02;100899.38;4967935;28;20026;-79
2022/05/11 08:17:59;;;;;;;7.60;3.45;;;;;;;15.28;41.87;100886.53;4953461;28;20119;-78
2022/05/11 08:20:35;;;;;;;5.72;2.72;;;;;;;16.18;39.84;100888.06;4978320;28;20130;-76
2022/05/11 08:23:21;;;;;;;6.15;2.22;;;;;;;15.81;39.51;100895.59;4984703;28;20124;-80
2022/05/11 08:25:54;;;;;;;14.07;2.80;;;;;;;15.83;40.60;100899.00;4997342;28;20492;-81
2022/05/11 08:28:27;;;;;;;6.70;2.78;;;;;;;16.08;40.03;100892.22;4945673;28;20038;-79
2022/05/11 08:33:41;;;;;;;6.13;2.80;;;;;;;16.76;38.16;100883.47;4986524;28;20089;-75
2022/05/11 08:36:13;;;;;;;7.47;3.05;;;;;;;17.07;36.98;100887.56;4962384;28;20026;-77
2022/05/11 08:38:45;;;;;;;9.30;2.60;;;;;;;17.52;37.57;100890.69;4972876;28;20053;-80
2022/05/11 08:41:36;;;;;;;6.63;2.97;;;;;;;19.40;33.61;100887.59;4969887;28;20410;-78
2022/05/11 08:44:10;;;;;;;9.10;3.03;;;;;;;18.63;33.60;100896.00;4978775;28;20054;-79
2022/05/11 08:47:00;;;;;;;9.15;2.55;;;;;;;18.33;33.89;100886.72;4986222;28;20026;-79
2022/05/11 08:49:59;;;;;;;6.68;2.53;;;;;;;19.44;33.12;100897.00;4985394;28;20031;-80
2022/05/11 08:52:52;;;;;;;6.05;3.30;;;;;;;17.83;35.40;100891.19;4947024;28;20331;-81
2022/05/11 08:55:42;;;;;;;11.50;2.92;;;;;;;19.24;33.25;100891.44;4985562;28;20058;-78
2022/05/11 08:58:24;;;;;;;6.97;3.28;;;;;;;18.68;34.40;100886.78;4977615;28;20137;-81
2022/05/11 09:00:56;;;;;;;9.38;3.53;;;;;;;18.08;35.48;100886.78;4948592;28;20348;-77
2022/05/11 09:03:42;;;;;;;9.70;3.58;;;;;;;17.56;36.48;100888.66;4965522;28;20041;-80
2022/05/11 09:06:26;;;;;;;7.10;4.05;;;;;;;16.18;38.98;100882.78;5003271;28;20041;-79
2022/05/11 09:08:56;;;;;;;11.93;3.88;;;;;;;15.90;39.92;100895.03;4972271;28;20082;-80
2022/05/11 09:11:43;;;;;;;8.40;3.55;;;;;;;16.29;39.35;100893.50;4966570;28;20030;-79
2022/05/11 09:14:13;;;;;;;7.25;3.22;;;;;;;17.05;39.00;100891.25;4978583;28;20050;-80
2022/05/11 09:16:43;;;;;;;12.80;3.70;;;;;;;16.68;39.09;100891.84;4982516;28;20033;-80
2022/05/11 09:19:15;;;;;;;11.32;3.95;;;;;;;16.89;38.58;100894.91;4934555;28;20048;-80
2022/05/11 09:21:56;;;;;;;11.63;3.92;;;;;;;17.04;37.74;100895.66;4981622;28;20042;-78
2022/05/11 09:24:30;;;;;;;9.50;3.65;;;;;;;16.38;39.25;100900.81;4986358;28;20038;-77
2022/05/11 09:27:30;;;;;;;10.20;3.53;;;;;;;16.21;39.56;100903.69;4960114;28;20451;-80
2022/05/11 09:30:22;;;;;;;8.82;4.43;;;;;;;16.37;38.66;100906.19;4967480;28;20593;-80
2022/05/11 09:32:52;;;;;;;14.80;3.35;;;;;;;16.02;39.86;100904.00;4994403;28;20125;-79
2022/05/11 09:35:37;;;;;;;7.18;3.00;;;;;;;15.71;40.86;100892.69;4966415;28;20096;-80
2022/05/11 09:38:10;;;;;;;8.73;3.10;;;;;;;15.97;39.99;100906.03;4964539;28;20608;-79
2022/05/11 09:40:59;;;;;;;7.55;3.42;;;;;;;16.52;38.96;100892.00;4966955;28;20053;-79
2022/05/11 09:43:27;;;;;;;7.53;3.17;;;;;;;16.11;39.25;100907.88;4974995;28;20072;-79
2022/05/11 09:45:53;;;;;;;14.10;3.45;;;;;;;16.45;38.97;100906.56;4963443;28;20041;-80
2022/05/11 09:48:25;;;;;;;10.13;3.22;;;;;;;16.71;38.95;100912.78;4997185;28;20058;-78
2022/05/11 09:50:57;;;;;;;12.23;3.30;;;;;;;17.44;37.08;100916.75;4963357;28;20113;-79
2022/05/11 09:53:35;;;;;;;6.63;2.70;;;;;;;17.11;37.42;100912.78;4924947;28;20072;-82
2022/05/11 09:56:36;;;;;;;9.65;2.90;;;;;;;17.59;36.30;100905.16;4995518;28;20026;-80
2022/05/11 09:59:23;;;;;;;10.05;2.53;;;;;;;18.21;35.73;100911.44;4976689;28;20141;-79
2022/05/11 10:01:57;;;;;;;10.35;3.95;;;;;;;18.79;33.67;100896.56;4959275;28;20042;-81
2022/05/11 10:04:33;;;;;;;6.90;2.92;;;;;;;19.35;33.59;100895.91;4986697;28;20030;-81
2022/05/11 10:07:00;;;;;;;7.93;2.92;;;;;;;18.97;33.80;100898.84;4958367;28;20131;-79
2022/05/11 10:09:33;;;;;;;8.75;3.05;;;;;;;20.40;32.21;100885.88;5004603;28;20034;-78
2022/05/11 10:12:01;;;;;;;9.30;3.03;;;;;;;19.96;32.20;100890.28;4956210;28;20128;-79
2022/05/11 10:23:13;;;;;;;8.45;2.63;;;;;;;20.53;30.47;100880.41;4981117;28;20121;-77
2022/05/11 10:25:46;;;;;;;9.93;3.72;;;;;;;19.83;31.03;100881.63;4964835;28;20320;-79
2022/05/11 10:28:54;;;;;;;9.10;2.65;;;;;;;18.74;33.09;100887.28;4994376;28;20138;-75
2022/05/11 10:31:26;;;;;;;11.90;3.55;;;;;;;19.28;31.48;100884.09;4963211;28;20034;-79
2022/05/11 10:34:07;;;;;;;;;;;;;;;18.86;32.85;100886.38;4975586;28;20046;-80
2022/05/11 10:37:20;;;;;;;7.78;2.42;;;;;;;18.28;33.33;100886.22;4981340;28;20024;-78
2022/05/11 10:40:15;;;;;;;9.75;2.55;;;;;;;18.82;32.64;100880.44;4962817;28;20042;-78
2022/05/11 10:42:55;;;;;;;7.78;2.50;;;;;;;21.03;29.99;100871.88;4982699;28;20038;-79
2022/05/11 10:45:27;;;;;;;11.85;2.25;;;;;;;21.12;28.63;100871.09;4962096;28;20038;-80
2022/05/11 10:48:35;;;;;;;4.45;1.58;;;;;;;20.56;29.00;100880.16;4968175;28;20136;-78
2022/05/11 10:51:13;;;;;;;6.65;1.83;;;;;;;18.92;31.51;100885.09;4984021;28;20034;-79
2022/05/11 10:53:52;;;;;;;5.95;2.25;;;;;;;18.12;32.45;100889.09;4984920;28;20104;-79
2022/05/11 10:56:42;;;;;;;6.43;2.25;;;;;;;17.45;34.25;100884.94;4973969;28;20103;-78
2022/05/11 10:59:30;;;;;;;9.25;2.17;;;;;;;18.18;33.15;100882.50;4959260;28;20049;-81
2022/05/11 11:02:33;;;;;;;8.70;2.38;;;;;;;17.65;34.07;100888.88;4960736;28;20050;-78
2022/05/11 11:05:05;;;;;;;4.47;2.10;;;;;;;17.75;34.13;100889.06;4954873;28;20034;-79
2022/05/11 11:08:02;;;;;;;3.90;1.23;;;;;;;17.07;34.34;100889.31;4957656;28;20052;-79
2022/05/11 11:10:56;;;;;;;9.05;1.00;;;;;;;17.59;33.43;100891.94;4989186;28;20030;-79
2022/05/11 11:13:43;;;;;;;6.93;1.65;;;;;;;17.51;33.20;100885.50;4959844;28;20061;-77
2022/05/11 11:16:12;;;;;;;5.10;1.17;;;;;;;17.15;34.31;100887.88;4957140;28;20203;-79
2022/05/11 11:18:42;;;;;;;8.73;1.58;;;;;;;18.75;32.42;100883.69;4986567;28;20049;-77
2022/05/11 11:21:10;;;;;;;8.35;1.45;;;;;;;19.02;31.20;100876.34;4961620;28;20034;-78
2022/05/11 11:23:39;;;;;;;7.15;1.25;;;;;;;18.97;30.76;100877.66;4933679;28;20045;-79
2022/05/11 11:26:33;;;;;;;7.75;1.20;;;;;;;19.60;30.33;100876.31;4976205;28;21214;-79
2022/05/11 11:28:59;;;;;;;7.90;1.00;;;;;;;19.94;29.44;100860.38;4961290;28;20054;-78
2022/05/11 11:31:58;;;;;;;6.30;1.63;;;;;;;20.72;28.35;100869.09;4976794;28;20083;-80
2022/05/11 11:34:28;;;;;;;7.47;0.68;;;;;;;21.07;27.18;100870.66;4945072;28;20805;-78
2022/05/11 11:36:55;;;;;;;14.18;1.48;;;;;;;22.08;25.86;100869.00;4953848;28;20084;-79
2022/05/11 11:39:48;;;;;;;5.95;1.40;;;;;;;21.46;26.64;100874.34;4980929;28;20087;-77
2022/05/11 11:42:30;;;;;;;4.88;0.98;;;;;;;19.47;28.84;100870.25;4968405;28;20078;-78
2022/05/11 11:44:56;;;;;;;4.68;0.77;;;;;;;19.83;27.50;100865.69;4969795;28;20057;-80
2022/05/11 11:47:30;;;;;;;6.50;0.95;;;;;;;19.86;27.38;100870.75;4953100;28;20389;-78
2022/05/11 11:49:58;;;;;;;8.68;0.75;;;;;;;21.19;28.10;100856.28;4957810;28;20042;-78
2022/05/11 11:52:39;;;;;;;6.75;0.50;;;;;;;22.31;25.61;100858.97;4973275;28;20057;-76
2022/05/11 11:55:30;;;;;;;2.83;0.57;;;;;;;21.31;26.17;100855.25;4954132;28;20054;-80
2022/05/11 11:58:11;;;;;;;6.30;0.50;;;;;;;20.83;26.84;100854.94;4971341;28;20042;-80
2022/05/11 12:00:47;;;;;;;3.88;0.50;;;;;;;20.37;26.46;100846.31;4958992;28;20038;-78
2022/05/11 12:03:23;;;;;;;6.63;1.13;;;;;;;20.57;27.45;100846.47;4943749;28;20564;-77
2022/05/11 12:05:55;;;;;;;2.47;0.45;;;;;;;19.91;26.84;100853.50;4952328;28;20042;-79
2022/05/11 12:16:56;;;;;;;8.75;1.35;;;;;;;19.49;28.28;100847.97;4979767;28;20885;-80
2022/05/11 12:19:29;;;;;;;4.18;1.52;;;;;;;19.80;29.18;100845.56;4980312;28;20034;-79
2022/05/11 12:22:15;;;;;;;3.05;0.40;;;;;;;19.45;29.32;100850.97;4936007;28;20038;-80
2022/05/11 12:24:52;;;;;;;4.43;0.88;;;;;;;19.58;28.88;100853.56;4998181;28;20038;-77
2022/05/11 12:27:42;;;;;;;8.85;0.88;;;;;;;18.92;29.24;100859.47;4986659;28;20073;-77
2022/05/11 12:30:24;;;;;;;3.88;0.45;;;;;;;19.11;29.42;100848.28;4970661;28;20068;-79
2022/05/11 12:32:57;;;;;;;4.88;0.35;;;;;;;19.59;28.86;100852.56;4954364;28;20128;-77
2022/05/11 12:35:41;;;;;;;8.13;0.63;;;;;;;18.66;30.19;100848.16;4962189;28;20038;-79
2022/05/11 12:38:12;;;;;;;9.32;0.98;;;;;;;18.94;28.89;100840.78;4967558;28;20140;-77
2022/05/11 12:40:50;;;;;;;7.72;0.77;;;;;;;19.01;29.55;100849.94;4976397;28;20091;-80
2022/05/11 12:43:33;;;;;;;3.92;0.82;;;;;;;17.63;30.63;100848.50;4963274;28;20102;-78
2022/05/11 12:46:02;;;;;;;5.68;0.73;;;;;;;17.13;31.29;100841.38;4965905;28;20201;-81
2022/05/11 12:48:55;;;;;;;6.28;0.70;;;;;;;17.65;31.04;100838.66;4947501;28;20042;-79
2022/05/11 12:51:49;;;;;;;13.98;1.42;;;;;;;18.02;29.70;100835.16;4984114;28;20038;-76
2022/05/11 12:54:21;;;;;;;7.13;0.77;;;;;;;18.19;29.98;100834.00;4968285;28;20065;-79
2022/05/11 12:56:59;;;;;;;2.28;0.63;;;;;;;19.66;27.95;100824.63;5002780;28;20035;-80
2022/05/11 12:59:32;;;;;;;6.00;1.00;;;;;;;19.18;28.42;100830.13;4950988;28;20046;-82
2022/05/11 13:02:18;;;;;;;6.75;0.50;;;;;;;19.32;28.39;100829.03;4925748;28;20386;-78
2022/05/11 13:05:08;;;;;;;10.57;1.10;;;;;;;19.83;27.61;100815.31;5001337;28;20084;-81
2022/05/11 13:07:48;;;;;;;8.00;1.35;;;;;;;19.65;28.71;100817.63;4961565;28;20038;-79
2022/05/11 13:10:25;;;;;;;2.67;0.47;;;;;;;18.42;29.16;100817.25;4965900;28;20116;-81
2022/05/11 13:12:56;;;;;;;6.85;0.57;;;;;;;19.22;29.20;100824.47;4982309;28;20125;-80
2022/05/11 13:15:41;;;;;;;5.07;0.65;;;;;;;19.36;28.17;100818.09;4967211;28;20034;-81
2022/05/11 13:18:23;;;;;;;5.03;0.85;;;;;;;18.98;28.20;100821.06;4984271;28;20057;-77
2022/05/11 13:20:51;;;;;;;8.02;0.88;;;;;;;18.86;28.43;100813.06;4950029;28;20038;-81
2022/05/11 13:23:47;;;;;;;3.05;0.47;;;;;;;18.97;28.64;100816.75;4963038;28;20129;-79
2022/05/11 13:26:44;;;;;;;6.03;0.90;;;;;;;19.20;28.31;100810.50;4983167;28;20044;-80
2022/05/11 13:29:23;;;;;;;7.57;0.63;;;;;;;18.99;29.35;100807.72;4964405;28;20062;-79
2022/05/11 13:32:07;;;;;;;7.00;1.08;;;;;;;17.64;30.14;100810.53;4980911;28;20046;-80
2022/05/11 13:34:42;;;;;;;5.40;0.57;;;;;;;18.30;29.79;100820.81;4982433;28;20047;-80
2022/05/11 13:37:32;;;;;;;4.07;1.05;;;;;;;18.56;30.54;100820.66;4949240;28;20057;-79
2022/05/11 13:39:57;;;;;;;5.25;1.00;;;;;;;18.66;30.35;100821.69;4994667;28;20513;-81
2022/05/11 13:42:29;;;;;;;4.80;0.70;;;;;;;18.71;29.32;100827.47;4961781;28;20050;-81
2022/05/11 13:45:08;;;;;;;7.72;0.90;;;;;;;18.16;29.85;100815.66;4967257;28;20060;-79
2022/05/11 13:50:43;;;;;;;2.67;1.02;;;;;;;20.50;27.02;100823.09;5000086;28;20038;-80
2022/05/11 13:53:18;;;;;;;3.40;1.15;;;;;;;20.23;27.38;100809.44;4978453;28;20511;-80
2022/05/11 13:55:59;;;;;;;8.70;0.82;;;;;;;18.76;29.19;100814.72;4983285;28;20135;-80
2022/05/11 13:58:31;;;;;;;5.40;0.65;;;;;;;19.94;28.01;100809.97;4959218;28;20374;-79
2022/05/11 14:01:04;;;;;;;;;;;;;;;20.05;27.58;100822.38;4980027;28;20348;-80
2022/05/11 14:03:33;;;;;;;7.18;1.25;;;;;;;20.43;30.98;100827.22;4977886;28;19966;-79
2022/05/11 14:06:02;;;;;;;9.57;1.98;;;;;;;19.79;32.28;100827.13;4976403;28;20408;-77
2022/05/11 14:08:28;;;;;;;9.60;1.23;;;;;;;20.39;31.43;100820.47;4964255;28;20042;-80
2022/05/11 14:10:56;;;;;;;8.88;1.33;;;;;;;19.60;32.63;100819.81;4960896;28;20826;-78
2022/05/11 14:13:22;;;;;;;6.85;0.93;;;;;;;18.84;34.34;100822.94;4980475;28;20038;-78
2022/05/11 14:15:49;;;;;;;12.68;1.70;;;;;;;18.85;34.19;100821.97;4979107;28;20030;-80
2022/05/11 14:18:19;;;;;;;8.27;1.73;;;;;;;18.84;33.89;100820.28;4960600;28;20592;-78
2022/05/11 14:20:45;;;;;;;14.95;1.60;;;;;;;19.05;34.44;100814.31;4974662;28;20042;-80
2022/05/11 14:23:10;;;;;;;13.25;1.33;;;;;;;19.35;33.36;100811.13;4960275;28;20052;-79
2022/05/11 14:25:36;;;;;;;10.68;1.40;;;;;;;19.86;32.54;100812.41;4961658;28;20042;-80
2022/05/11 14:28:02;;;;;;;6.07;1.08;;;;;;;20.30;31.96;100810.63;4939532;28;20562;-78